createdAt,value
2023-02-15T00:02:13.467Z,49.75
2023-02-15T00:05:14.128Z,55.45
2023-02-15T00:08:15.343Z,49.03
2023-02-15T00:11:39.613Z,75.82
2023-02-15T00:14:40.760Z,60.78
2023-02-15T00:17:41.452Z,74.30
2023-02-15T00:20:42.406Z,63.47
2023-02-15T00:23:43.035Z,64.43
2023-02-15T00:26:45.142Z,68.00
2023-02-15T00:29:48.723Z,76.63
2023-02-15T00:32:49.831Z,72.75
2023-02-15T00:35:59.274Z,83.38
2023-02-15T00:39:00.473Z,78.15
2023-02-15T00:42:01.761Z,67.07
2023-02-15T00:45:02.467Z,65.75
2023-02-15T00:48:03.956Z,70.13
2023-02-15T00:51:05.149Z,59.67
2023-02-15T00:54:06.566Z,58.58
2023-02-15T00:57:07.473Z,48.63
2023-02-15T01:00:08.998Z,47.10
2023-02-15T01:03:10.581Z,54.63
2023-02-15T01:06:12.291Z,51.88
2023-02-15T01:09:14.767Z,54.13
2023-02-15T01:12:16.291Z,59.28
2023-02-15T01:15:16.988Z,46.60
2023-02-15T01:18:18.347Z,47.42
2023-02-15T01:21:26.090Z,46.20
2023-02-15T01:24:26.734Z,52.92
2023-02-15T01:27:27.875Z,44.00
2023-02-15T01:30:28.797Z,47.60
2023-02-15T01:33:29.431Z,43.75
2023-02-15T01:36:30.541Z,45.85
2023-02-15T01:39:31.328Z,45.30
2023-02-15T01:42:32.935Z,49.20
2023-02-15T01:45:34.159Z,51.10
2023-02-15T01:48:34.964Z,50.92
2023-02-15T01:51:41.626Z,41.13
2023-02-15T01:54:47.218Z,46.10
2023-02-15T01:57:50.833Z,43.65
2023-02-15T02:00:51.870Z,42.30
2023-02-15T02:04:03.381Z,44.03
2023-02-15T02:07:07.543Z,36.88
2023-02-15T02:10:12.815Z,41.45
2023-02-15T02:13:14.181Z,40.33
2023-02-15T02:16:32.230Z,42.15
2023-02-15T02:20:11.183Z,38.13
2023-02-15T02:23:17.923Z,42.63
2023-02-15T02:27:13.895Z,32.53
2023-02-15T02:30:47.279Z,40.43
2023-02-15T02:34:20.260Z,51.70
2023-02-15T02:37:35.046Z,37.00
2023-02-15T02:41:01.824Z,41.22
2023-02-15T02:44:17.615Z,43.25
2023-02-15T02:47:45.821Z,37.65
2023-02-15T02:50:46.881Z,35.50
2023-02-15T02:53:52.763Z,40.28
2023-02-15T02:56:57.475Z,38.10
2023-02-15T03:00:03.868Z,42.92
2023-02-15T03:03:27.440Z,39.03
2023-02-15T03:06:49.551Z,41.40
2023-02-15T03:09:55.917Z,38.92
2023-02-15T03:12:57.149Z,36.90
2023-02-15T03:16:20.033Z,40.83
2023-02-15T03:19:30.177Z,39.28
2023-02-15T03:22:39.814Z,51.72
2023-02-15T03:25:51.201Z,38.35
2023-02-15T03:29:00.035Z,45.17
2023-02-15T03:32:08.279Z,54.88
2023-02-15T03:35:09.442Z,47.53
2023-02-15T03:38:16.305Z,52.97
2023-02-15T03:41:20.760Z,46.47
2023-02-15T03:44:30.908Z,51.33
2023-02-15T03:47:38.379Z,48.88
2023-02-15T03:50:59.664Z,44.60
2023-02-15T03:54:40.359Z,47.85
2023-02-15T03:58:00.090Z,50.13
2023-02-15T04:01:33.349Z,53.25
2023-02-15T04:04:39.073Z,61.38
2023-02-15T04:07:40.248Z,49.20
2023-02-15T04:10:53.741Z,43.60
2023-02-15T04:13:57.742Z,40.38
2023-02-15T04:16:58.882Z,53.30
2023-02-15T04:20:18.671Z,41.38
2023-02-15T04:23:37.799Z,39.60
2023-02-15T04:26:39.034Z,41.28
2023-02-15T04:29:39.784Z,41.10
2023-02-15T04:32:40.752Z,47.38
2023-02-15T04:35:41.849Z,41.10
2023-02-15T04:38:42.914Z,44.95
2023-02-15T04:41:43.856Z,56.90
2023-02-15T04:44:45.023Z,54.63
2023-02-15T04:47:46.394Z,66.63
2023-02-15T04:50:47.602Z,68.05
2023-02-15T04:53:48.357Z,55.70
2023-02-15T04:56:49.614Z,59.70
2023-02-15T04:59:50.481Z,57.17
2023-02-15T05:02:51.346Z,62.50
2023-02-15T05:05:52.567Z,59.30
2023-02-15T05:08:53.593Z,56.35
2023-02-15T05:11:54.890Z,44.72
2023-02-15T05:14:56.119Z,50.00
2023-02-15T05:17:56.800Z,70.85
2023-02-15T05:20:58.166Z,56.78
2023-02-15T05:23:59.158Z,50.05
2023-02-15T05:27:18.343Z,59.55
2023-02-15T05:30:19.548Z,48.38
2023-02-15T05:33:21.456Z,53.33
2023-02-15T05:36:22.506Z,55.38
2023-02-15T05:39:24.038Z,46.03
2023-02-15T05:42:25.270Z,46.20
2023-02-15T05:45:26.648Z,63.00
2023-02-15T05:48:29.225Z,75.13
2023-02-15T05:51:30.298Z,64.38
2023-02-15T05:54:31.211Z,56.72
2023-02-15T05:57:32.336Z,81.97
2023-02-15T06:00:33.303Z,69.95
2023-02-15T06:03:34.560Z,56.20
2023-02-15T06:06:35.705Z,58.35
2023-02-15T06:09:36.718Z,50.13
2023-02-15T06:12:37.518Z,59.15
2023-02-15T06:15:38.554Z,54.10
2023-02-15T06:18:39.393Z,70.18
2023-02-15T06:21:40.440Z,66.20
2023-02-15T06:24:43.446Z,72.55
2023-02-15T06:27:44.557Z,70.53
2023-02-15T06:30:45.445Z,52.10
2023-02-15T06:33:46.143Z,55.00
2023-02-15T06:36:47.042Z,51.67
2023-02-15T06:39:47.750Z,62.40
2023-02-15T06:42:48.682Z,52.38
2023-02-15T06:45:49.429Z,50.30
2023-02-15T06:48:50.084Z,52.83
2023-02-15T06:51:50.803Z,51.58
2023-02-15T06:54:51.908Z,58.10
2023-02-15T06:57:53.325Z,55.63
2023-02-15T07:00:54.152Z,59.13
2023-02-15T07:03:55.410Z,54.17
2023-02-15T07:06:57.098Z,56.58
2023-02-15T07:09:57.706Z,42.70
2023-02-15T07:12:58.592Z,55.97
2023-02-15T07:15:59.390Z,45.60
2023-02-15T07:19:00.437Z,56.40
2023-02-15T07:22:01.246Z,45.65
2023-02-15T07:25:02.012Z,52.83
2023-02-15T07:28:05.322Z,47.28
2023-02-15T07:31:07.032Z,47.90
2023-02-15T07:34:08.735Z,55.88
2023-02-15T07:37:10.030Z,51.33
2023-02-15T07:40:11.213Z,37.55
2023-02-15T07:43:13.250Z,42.13
2023-02-15T07:46:17.920Z,42.03
2023-02-15T07:49:18.866Z,45.13
2023-02-15T07:52:19.916Z,44.75
2023-02-15T07:55:21.671Z,45.25
2023-02-15T07:58:42.531Z,50.53
2023-02-15T08:01:43.775Z,61.83
2023-02-15T08:04:44.514Z,50.85
2023-02-15T08:07:45.200Z,78.55
2023-02-15T08:11:04.378Z,67.43
2023-02-15T08:14:12.580Z,58.35
2023-02-15T08:17:13.736Z,55.38
2023-02-15T08:20:14.536Z,44.95
2023-02-15T08:23:15.706Z,57.38
2023-02-15T08:26:17.941Z,57.47
2023-02-15T08:29:26.082Z,62.30
2023-02-15T08:32:27.482Z,55.78
2023-02-15T08:35:28.357Z,57.08
2023-02-15T08:38:29.233Z,58.75
2023-02-15T08:41:36.753Z,61.80
2023-02-15T08:44:38.018Z,45.63
2023-02-15T08:47:38.807Z,48.03
2023-02-15T08:50:40.644Z,57.95
2023-02-15T08:53:45.041Z,53.75
2023-02-15T08:56:47.011Z,53.70
2023-02-15T08:59:48.034Z,50.30
2023-02-15T09:02:48.942Z,68.13
2023-02-15T09:05:50.331Z,47.88
2023-02-15T09:08:51.979Z,46.58
2023-02-15T09:11:58.783Z,53.55
2023-02-15T09:15:00.328Z,60.15
2023-02-15T09:18:03.837Z,75.55
2023-02-15T09:21:19.345Z,56.90
2023-02-15T09:24:20.770Z,58.63
2023-02-15T09:27:21.704Z,50.35
2023-02-15T09:30:23.101Z,49.35
2023-02-15T09:33:26.274Z,31.73
2023-02-15T09:36:40.998Z,33.42
2023-02-15T09:39:45.072Z,35.03
2023-02-15T09:43:18.342Z,43.72
2023-02-15T09:47:04.443Z,58.40
2023-02-15T09:50:26.796Z,45.72
2023-02-15T09:53:59.541Z,44.78
2023-02-15T09:57:22.507Z,50.08
2023-02-15T10:00:56.204Z,42.63
2023-02-15T10:04:32.922Z,44.05
2023-02-15T10:07:43.089Z,32.13
2023-02-15T10:11:42.232Z,33.53
2023-02-15T10:15:19.005Z,34.15
2023-02-15T10:22:37.840Z,38.10
2023-02-15T10:26:20.201Z,38.83
2023-02-15T10:29:39.411Z,33.97
2023-02-15T10:33:14.301Z,35.38
2023-02-15T10:37:18.875Z,32.83
2023-02-15T10:40:54.591Z,31.33
2023-02-15T10:44:34.231Z,28.45
2023-02-15T10:48:22.709Z,24.48
2023-02-15T10:51:57.302Z,27.10
2023-02-15T10:55:22.186Z,24.65
2023-02-15T10:58:53.375Z,26.30
2023-02-15T11:02:04.898Z,26.73
2023-02-15T11:05:43.674Z,22.83
2023-02-15T11:09:02.424Z,22.90
2023-02-15T11:12:10.861Z,25.25
2023-02-15T11:15:33.231Z,22.05
2023-02-15T11:18:53.815Z,25.60
2023-02-15T11:22:02.098Z,22.45
2023-02-15T11:25:20.515Z,24.00
2023-02-15T11:28:40.613Z,24.20
2023-02-15T11:31:47.566Z,23.92
2023-02-15T11:38:24.010Z,21.35
2023-02-15T11:41:32.413Z,26.02
2023-02-15T11:44:45.986Z,27.00
2023-02-15T11:47:46.853Z,22.02
2023-02-15T11:50:48.594Z,21.90
2023-02-15T11:53:50.789Z,22.88
2023-02-15T11:56:51.941Z,18.42
2023-02-15T12:00:05.880Z,19.98
2023-02-15T12:03:23.594Z,18.92
2023-02-15T12:06:42.387Z,21.02
2023-02-15T12:10:00.526Z,17.85
2023-02-15T12:13:22.232Z,19.33
2023-02-15T12:16:23.727Z,17.75
2023-02-15T12:19:30.035Z,19.55
2023-02-15T12:22:37.463Z,19.27
2023-02-15T12:25:55.439Z,18.08
2023-02-15T12:29:08.285Z,19.30
2023-02-15T12:32:20.655Z,17.08
2023-02-15T12:35:35.050Z,18.23
2023-02-15T12:38:37.011Z,17.38
2023-02-15T12:41:44.730Z,17.77
2023-02-15T12:44:56.873Z,17.27
2023-02-15T12:48:17.009Z,16.48
2023-02-15T12:51:18.071Z,16.85
2023-02-15T12:54:37.438Z,15.88
2023-02-15T12:57:38.636Z,14.70
2023-02-15T13:00:39.781Z,17.40
2023-02-15T13:04:15.684Z,15.60
2023-02-15T13:07:16.919Z,14.60
2023-02-15T13:10:38.602Z,15.10
2023-02-15T13:13:59.343Z,15.20
2023-02-15T13:17:08.468Z,15.27
2023-02-15T13:20:25.614Z,15.18
2023-02-15T13:23:33.280Z,15.32
2023-02-15T13:26:36.143Z,14.48
2023-02-15T13:29:39.657Z,25.55
2023-02-15T13:32:43.550Z,16.42
2023-02-15T13:36:05.422Z,16.58
2023-02-15T13:39:50.226Z,15.70
2023-02-15T13:43:03.418Z,14.63
2023-02-15T13:46:52.041Z,14.65
2023-02-15T13:50:43.039Z,15.68
2023-02-15T13:54:03.705Z,15.43
2023-02-15T13:57:58.445Z,15.30
2023-02-15T14:01:46.026Z,15.50
2023-02-15T14:05:27.096Z,15.45
2023-02-15T14:09:11.897Z,14.52
2023-02-15T14:12:41.139Z,14.02
2023-02-15T14:16:16.204Z,15.77
2023-02-15T14:19:51.099Z,15.18
2023-02-15T14:23:39.809Z,15.75
2023-02-15T14:26:54.869Z,15.20
2023-02-15T14:30:17.164Z,15.18
2023-02-15T14:33:38.951Z,15.88
2023-02-15T14:36:40.268Z,15.45
2023-02-15T14:40:09.013Z,15.77
2023-02-15T14:43:22.515Z,14.88
2023-02-15T14:46:55.870Z,15.88
2023-02-15T14:49:56.860Z,16.20
2023-02-15T14:53:40.277Z,14.80
2023-02-15T14:57:07.750Z,15.65
2023-02-15T15:00:39.279Z,14.93
2023-02-15T15:03:54.447Z,17.23
2023-02-15T15:07:23.146Z,14.50
2023-02-15T15:10:23.968Z,16.05
2023-02-15T15:13:36.610Z,15.73
2023-02-15T15:16:38.236Z,16.13
2023-02-15T15:19:52.644Z,15.32
2023-02-15T15:23:16.414Z,15.35
2023-02-15T15:26:25.621Z,14.75
2023-02-15T15:29:41.741Z,14.48
2023-02-15T15:33:00.571Z,14.88
2023-02-15T15:36:45.474Z,17.10
2023-02-15T15:40:12.498Z,16.42
2023-02-15T15:43:54.513Z,14.82
2023-02-15T15:47:13.998Z,15.32
2023-02-15T15:50:20.654Z,14.75
2023-02-15T15:53:27.654Z,16.37
2023-02-15T15:59:54.890Z,17.02
2023-02-15T16:02:57.345Z,16.80
2023-02-15T16:06:01.925Z,16.83
2023-02-15T16:09:24.539Z,18.33
2023-02-15T16:12:35.355Z,22.98
2023-02-15T16:15:46.372Z,17.20
2023-02-15T16:18:48.320Z,17.67
2023-02-15T16:21:50.483Z,17.73
2023-02-15T16:25:18.246Z,16.48
2023-02-15T16:28:21.300Z,16.65
2023-02-15T16:31:24.057Z,17.58
2023-02-15T16:34:25.103Z,16.77
2023-02-15T16:37:38.246Z,15.85
2023-02-15T16:40:56.690Z,15.50
2023-02-15T16:44:21.275Z,16.55
2023-02-15T16:47:31.324Z,17.30
2023-02-15T16:50:37.475Z,16.88
2023-02-15T16:53:38.846Z,17.60
2023-02-15T16:56:40.531Z,18.63
2023-02-15T16:59:48.165Z,16.52
2023-02-15T17:03:15.433Z,16.63
2023-02-15T17:09:26.491Z,17.60
2023-02-15T17:12:58.834Z,16.73
2023-02-15T17:15:59.692Z,15.32
2023-02-15T17:19:15.282Z,15.15
2023-02-15T17:22:28.013Z,12.98
2023-02-15T17:25:41.129Z,13.57
2023-02-15T17:28:59.874Z,14.20
2023-02-15T17:32:03.080Z,14.63
2023-02-15T17:35:05.060Z,19.13
2023-02-15T17:38:33.558Z,20.13
2023-02-15T17:41:38.233Z,18.23
2023-02-15T17:44:40.678Z,16.17
2023-02-15T17:47:43.052Z,19.70
2023-02-15T17:50:44.116Z,18.65
2023-02-15T17:54:06.018Z,18.38
2023-02-15T17:57:15.419Z,20.42
2023-02-15T18:00:35.771Z,20.15
2023-02-15T18:04:00.470Z,19.88
2023-02-15T18:07:19.920Z,20.38
2023-02-15T18:10:39.048Z,20.13
2023-02-15T18:13:39.855Z,23.08
2023-02-15T18:16:45.779Z,18.30
2023-02-15T18:19:47.646Z,16.92
2023-02-15T18:22:48.522Z,18.55
2023-02-15T18:25:49.408Z,20.75
2023-02-15T18:28:51.887Z,20.23
2023-02-15T18:31:56.545Z,20.40
2023-02-15T18:34:59.043Z,22.95
2023-02-15T18:38:02.162Z,23.48
2023-02-15T18:41:05.242Z,23.30
2023-02-15T18:44:12.389Z,25.60
2023-02-15T18:47:13.327Z,24.58
2023-02-15T18:50:17.534Z,30.25
2023-02-15T18:53:21.647Z,30.15
2023-02-15T18:56:23.738Z,31.08
2023-02-15T18:59:27.641Z,34.95
2023-02-15T19:02:28.945Z,34.10
2023-02-15T19:05:32.795Z,34.17
2023-02-15T19:08:33.561Z,33.45
2023-02-15T19:11:34.544Z,35.55
2023-02-15T19:14:35.467Z,35.67
2023-02-15T19:17:36.266Z,34.13
2023-02-15T19:20:41.894Z,36.88
2023-02-15T19:23:42.702Z,33.50
2023-02-15T19:26:46.249Z,32.38
2023-02-15T19:29:47.687Z,33.63
2023-02-15T19:32:49.272Z,30.20
2023-02-15T19:35:57.499Z,30.17
2023-02-15T19:38:58.614Z,32.30
2023-02-15T19:41:59.425Z,33.83
2023-02-15T19:45:01.056Z,38.42
2023-02-15T19:48:02.457Z,43.50
2023-02-15T19:51:04.546Z,47.83
2023-02-15T19:54:35.813Z,42.10
2023-02-15T19:57:36.388Z,38.40
2023-02-15T20:00:37.302Z,38.90
2023-02-15T20:03:38.772Z,39.95
2023-02-15T20:06:39.587Z,39.17
2023-02-15T20:09:41.843Z,38.30
2023-02-15T20:12:43.071Z,33.63
2023-02-15T20:15:44.459Z,37.83
2023-02-15T20:18:46.629Z,36.40
2023-02-15T20:21:54.778Z,38.95
2023-02-15T20:24:57.141Z,37.67
2023-02-15T20:27:59.415Z,38.40
2023-02-15T20:31:00.434Z,45.15
2023-02-15T20:34:01.509Z,40.70
2023-02-15T20:37:02.688Z,41.88
2023-02-15T20:40:06.037Z,42.53
2023-02-15T20:43:15.322Z,43.17
2023-02-15T20:46:16.873Z,45.00
2023-02-15T20:49:17.861Z,45.53
2023-02-15T20:52:20.967Z,51.20
2023-02-15T20:55:27.160Z,48.88
2023-02-15T20:58:30.370Z,48.63
2023-02-15T21:01:32.434Z,49.35
2023-02-15T21:04:34.678Z,47.72
2023-02-15T21:07:35.890Z,46.35
2023-02-15T21:10:36.875Z,45.95
2023-02-15T21:13:38.774Z,41.80
2023-02-15T21:16:39.472Z,45.40
2023-02-15T21:19:41.484Z,44.70
2023-02-15T21:22:42.767Z,48.78
2023-02-15T21:25:44.972Z,43.78
2023-02-15T21:28:46.555Z,42.83
2023-02-15T21:31:48.512Z,44.78
2023-02-15T21:34:49.454Z,41.75
2023-02-15T21:37:53.422Z,42.63
2023-02-15T21:40:54.857Z,43.22
2023-02-15T21:44:14.002Z,44.40
2023-02-15T21:47:46.662Z,45.67
2023-02-15T21:51:06.924Z,46.13
2023-02-15T21:54:12.863Z,51.40
2023-02-15T21:57:16.618Z,51.63
2023-02-15T22:00:24.225Z,41.03
2023-02-15T22:03:36.744Z,40.25
2023-02-15T22:06:37.598Z,35.55
2023-02-15T22:09:38.468Z,36.45
2023-02-15T22:12:41.884Z,38.13
2023-02-15T22:15:43.412Z,32.97
2023-02-15T22:18:45.615Z,43.53
2023-02-15T22:21:46.484Z,39.58
2023-02-15T22:24:47.825Z,47.22
2023-02-15T22:27:51.998Z,45.10
2023-02-15T22:30:53.815Z,42.83
2023-02-15T22:33:55.529Z,42.03
2023-02-15T22:36:57.886Z,45.55
2023-02-15T22:39:58.582Z,47.33
2023-02-15T22:43:05.843Z,44.55
2023-02-15T22:46:21.289Z,38.05
2023-02-15T22:49:22.354Z,43.10
2023-02-15T22:52:23.938Z,45.60
2023-02-15T22:55:29.430Z,44.72
2023-02-15T22:58:30.265Z,33.83
2023-02-15T23:01:38.119Z,35.80
2023-02-15T23:04:39.010Z,45.10
2023-02-15T23:07:39.690Z,49.33
2023-02-15T23:10:42.497Z,41.92
2023-02-15T23:13:43.878Z,42.20
2023-02-15T23:16:44.668Z,31.48
2023-02-15T23:19:46.322Z,32.30
2023-02-15T23:22:47.436Z,38.42
2023-02-15T23:25:48.259Z,35.72
2023-02-15T23:28:51.433Z,37.95
2023-02-15T23:31:54.353Z,43.88
2023-02-15T23:34:55.617Z,37.33
2023-02-15T23:37:56.315Z,43.47
2023-02-15T23:41:19.383Z,39.05
2023-02-15T23:44:20.590Z,38.90
2023-02-15T23:47:45.724Z,43.78
2023-02-15T23:50:46.363Z,30.75
2023-02-15T23:53:47.083Z,26.80
2023-02-15T23:56:59.447Z,30.13
